createdAt,value
2018-03-20T00:01:20.332Z,91.40
2018-03-20T00:03:47.905Z,91.40
2018-03-20T00:06:15.441Z,91.30
2018-03-20T00:08:42.975Z,91.30
2018-03-20T00:11:10.559Z,91.40
2018-03-20T00:13:38.099Z,91.40
2018-03-20T00:16:06.411Z,91.20
2018-03-20T00:18:33.983Z,91.20
2018-03-20T00:21:01.525Z,91.20
2018-03-20T00:23:29.062Z,91.10
2018-03-20T00:25:57.390Z,90.90
2018-03-20T00:28:24.927Z,90.90
2018-03-20T00:30:52.452Z,91.00
2018-03-20T00:33:20.800Z,90.90
2018-03-20T00:35:48.343Z,90.90
2018-03-20T00:38:15.889Z,91.00
2018-03-20T00:40:43.448Z,91.10
2018-03-20T00:43:10.987Z,91.20
2018-03-20T00:45:38.516Z,90.90
2018-03-20T00:48:06.163Z,91.00
2018-03-20T00:50:33.723Z,91.00
2018-03-20T00:53:01.266Z,90.90
2018-03-20T00:55:28.808Z,90.90
2018-03-20T00:57:56.334Z,90.90
2018-03-20T01:00:24.631Z,91.00
2018-03-20T01:02:52.201Z,91.00
2018-03-20T01:05:19.747Z,91.00
2018-03-20T01:07:47.281Z,90.90
2018-03-20T01:10:15.599Z,90.50
2018-03-20T01:12:43.142Z,90.50
2018-03-20T01:15:10.692Z,90.40
2018-03-20T01:17:38.265Z,90.30
2018-03-20T01:20:05.806Z,90.00
2018-03-20T01:22:34.115Z,90.00
2018-03-20T01:25:01.691Z,90.00
2018-03-20T01:27:29.211Z,90.20
2018-03-20T01:29:56.754Z,90.20
2018-03-20T01:32:25.073Z,90.30
2018-03-20T01:34:52.603Z,90.30
2018-03-20T01:37:20.129Z,90.40
2018-03-20T01:39:47.690Z,90.50
2018-03-20T01:42:15.230Z,90.40
2018-03-20T01:44:42.770Z,90.40
2018-03-20T01:47:10.340Z,90.40
2018-03-20T01:49:37.889Z,90.40
2018-03-20T01:52:05.416Z,90.50
2018-03-20T01:54:32.972Z,90.60
2018-03-20T01:57:01.275Z,90.80
2018-03-20T01:59:28.814Z,90.80
2018-03-20T02:01:56.383Z,90.80
2018-03-20T02:04:23.913Z,90.90
2018-03-20T02:06:52.214Z,91.00
2018-03-20T02:09:19.765Z,91.00
2018-03-20T02:11:47.308Z,91.00
2018-03-20T02:14:15.619Z,91.10
2018-03-20T02:16:43.200Z,91.10
2018-03-20T02:19:10.722Z,91.20
2018-03-20T02:21:38.249Z,91.30
2018-03-20T02:24:05.809Z,91.30
2018-03-20T02:26:33.349Z,91.20
2018-03-20T02:29:00.892Z,91.20
2018-03-20T02:31:28.442Z,91.30
2018-03-20T02:33:55.994Z,91.30
2018-03-20T02:36:23.538Z,91.30
2018-03-20T02:38:51.103Z,91.40
2018-03-20T02:41:18.644Z,91.30
2018-03-20T02:43:46.956Z,90.90
2018-03-20T02:46:20.345Z,90.90
2018-03-20T02:48:47.885Z,90.90
2018-03-20T02:51:15.413Z,90.90
2018-03-20T02:53:42.970Z,91.00
2018-03-20T02:56:10.528Z,90.90
2018-03-20T02:58:38.067Z,90.50
2018-03-20T03:01:05.628Z,90.50
2018-03-20T03:03:33.172Z,90.50
2018-03-20T03:06:00.704Z,90.60
2018-03-20T03:08:28.262Z,90.30
2018-03-20T03:10:55.795Z,90.30
2018-03-20T03:13:23.332Z,90.10
2018-03-20T03:15:50.881Z,90.10
2018-03-20T03:18:18.447Z,90.20
2018-03-20T03:20:45.968Z,90.40
2018-03-20T03:23:13.539Z,90.50
2018-03-20T03:25:41.936Z,90.60
2018-03-20T03:28:09.494Z,90.60
2018-03-20T03:30:37.037Z,90.70
2018-03-20T03:33:04.603Z,90.70
2018-03-20T03:35:32.144Z,90.80
2018-03-20T03:37:59.703Z,90.80
2018-03-20T03:40:27.241Z,90.90
2018-03-20T03:42:55.551Z,90.90
2018-03-20T03:45:23.093Z,90.90
2018-03-20T03:47:50.646Z,91.00
2018-03-20T03:50:18.194Z,91.00
2018-03-20T03:52:46.486Z,91.20
2018-03-20T03:55:14.045Z,91.20
2018-03-20T03:57:41.592Z,91.30
2018-03-20T04:00:09.923Z,91.30
2018-03-20T04:02:37.454Z,91.30
2018-03-20T04:05:05.009Z,91.40
2018-03-20T04:07:32.536Z,91.20
2018-03-20T04:10:00.876Z,90.80
2018-03-20T04:12:28.415Z,90.80
2018-03-20T04:14:55.958Z,90.60
2018-03-20T04:17:23.505Z,90.60
2018-03-20T04:19:51.053Z,90.60
2018-03-20T04:22:19.373Z,90.30
2018-03-20T04:24:46.904Z,90.30
2018-03-20T04:27:14.458Z,90.50
2018-03-20T04:29:42.750Z,90.50
2018-03-20T04:32:10.301Z,90.50
2018-03-20T04:34:37.844Z,90.60
2018-03-20T04:37:06.197Z,90.70
2018-03-20T04:39:33.747Z,90.70
2018-03-20T04:42:01.289Z,90.20
2018-03-20T04:44:28.833Z,90.10
2018-03-20T04:46:56.357Z,89.40
2018-03-20T04:49:24.674Z,88.40
2018-03-20T04:51:52.200Z,88.30
2018-03-20T04:54:20.523Z,88.20
2018-03-20T04:56:48.051Z,88.20
2018-03-20T04:59:15.642Z,88.50
2018-03-20T05:01:43.169Z,88.80
2018-03-20T05:04:10.709Z,88.00
2018-03-20T05:06:39.047Z,88.10
2018-03-20T05:09:06.602Z,88.10
2018-03-20T05:11:34.160Z,87.90
2018-03-20T05:14:01.703Z,88.90
2018-03-20T05:16:29.252Z,89.20
2018-03-20T05:19:02.475Z,89.60
2018-03-20T05:21:40.683Z,89.40
2018-03-20T05:24:08.224Z,89.80
2018-03-20T05:26:35.785Z,90.10
2018-03-20T05:29:03.324Z,90.00
2018-03-20T05:31:30.877Z,90.10
2018-03-20T05:33:58.436Z,90.10
2018-03-20T05:36:25.973Z,90.10
2018-03-20T05:38:54.298Z,90.00
2018-03-20T05:41:21.826Z,90.00
2018-03-20T05:43:50.156Z,89.40
2018-03-20T05:49:35.623Z,89.30
2018-03-20T05:52:05.862Z,88.90
2018-03-20T05:54:33.413Z,88.80
2018-03-20T05:57:00.949Z,88.90
2018-03-20T05:59:28.512Z,89.00
2018-03-20T06:01:56.083Z,88.50
2018-03-20T06:04:24.354Z,87.80
2018-03-20T06:06:51.889Z,87.80
2018-03-20T06:09:20.189Z,87.60
2018-03-20T06:11:47.748Z,87.60
2018-03-20T06:14:15.283Z,87.70
2018-03-20T06:16:43.604Z,88.00
2018-03-20T06:19:11.132Z,88.10
2018-03-20T06:21:38.698Z,88.30
2018-03-20T06:24:06.232Z,88.40
2018-03-20T06:26:34.555Z,88.10
2018-03-20T06:29:02.114Z,88.00
2018-03-20T06:31:29.657Z,87.00
2018-03-20T06:33:57.210Z,87.30
2018-03-20T06:36:24.738Z,87.70
2018-03-20T06:38:53.072Z,88.10
2018-03-20T06:41:20.629Z,87.40
2018-03-20T06:43:48.176Z,87.70
2018-03-20T06:46:15.706Z,87.90
2018-03-20T06:48:44.044Z,88.40
2018-03-20T06:51:11.599Z,88.40
2018-03-20T06:53:39.149Z,88.80
2018-03-20T06:56:06.693Z,87.90
2018-03-20T06:58:34.220Z,88.00
2018-03-20T07:01:02.565Z,88.50
2018-03-20T07:03:30.103Z,88.40
2018-03-20T07:05:57.675Z,88.90
2018-03-20T07:08:25.225Z,88.00
2018-03-20T07:10:52.786Z,88.00
2018-03-20T07:13:20.338Z,86.90
2018-03-20T07:15:47.859Z,84.90
2018-03-20T07:18:16.166Z,83.30
2018-03-20T07:20:43.696Z,83.30
2018-03-20T07:23:12.019Z,83.30
2018-03-20T07:25:39.576Z,83.20
2018-03-20T07:28:07.125Z,82.90
2018-03-20T07:30:34.649Z,82.50
2018-03-20T07:33:02.983Z,82.00
2018-03-20T07:35:30.534Z,82.10
2018-03-20T07:37:58.110Z,80.00
2018-03-20T07:40:25.649Z,80.80
2018-03-20T07:42:53.183Z,80.70
2018-03-20T07:45:20.755Z,80.50
2018-03-20T07:47:48.299Z,78.80
2018-03-20T07:50:15.840Z,77.60
2018-03-20T07:52:44.147Z,77.70
2018-03-20T07:55:11.699Z,77.70
2018-03-20T07:57:39.241Z,78.30
2018-03-20T08:00:06.821Z,77.70
2018-03-20T08:02:34.339Z,77.40
2018-03-20T08:05:01.877Z,76.70
2018-03-20T08:07:29.442Z,77.30
2018-03-20T08:09:56.982Z,77.50
2018-03-20T08:12:24.525Z,78.20
2018-03-20T08:14:52.090Z,79.10
2018-03-20T08:17:20.413Z,79.60
2018-03-20T08:19:47.948Z,79.60
2018-03-20T08:22:15.501Z,79.50
2018-03-20T08:24:43.057Z,80.60
2018-03-20T08:27:11.377Z,78.50
2018-03-20T08:29:39.678Z,79.90
2018-03-20T08:32:07.209Z,79.80
2018-03-20T08:34:35.535Z,77.60
2018-03-20T08:37:03.073Z,77.60
2018-03-20T08:39:30.660Z,78.20
2018-03-20T08:41:58.197Z,78.30
2018-03-20T08:44:25.787Z,78.70
2018-03-20T08:46:53.311Z,77.90
2018-03-20T08:49:20.871Z,78.30
2018-03-20T08:51:48.418Z,78.00
2018-03-20T08:54:16.730Z,78.40
2018-03-20T08:56:44.262Z,78.40
2018-03-20T08:59:11.829Z,79.20
2018-03-20T09:01:39.380Z,80.60
2018-03-20T09:04:06.920Z,81.20
2018-03-20T09:06:35.343Z,81.70
2018-03-20T09:09:02.879Z,81.60
2018-03-20T09:11:30.429Z,81.90
2018-03-20T09:13:57.969Z,82.90
2018-03-20T09:16:26.319Z,81.80
2018-03-20T09:18:53.853Z,81.80
2018-03-20T09:21:21.401Z,82.20
2018-03-20T09:23:48.961Z,82.30
2018-03-20T09:26:16.488Z,80.80
2018-03-20T09:28:44.796Z,80.40
2018-03-20T09:33:47.000Z,80.60
2018-03-20T09:36:14.545Z,80.60
2018-03-20T09:38:42.113Z,81.70
2018-03-20T09:41:09.649Z,82.10
2018-03-20T09:43:37.210Z,81.90
2018-03-20T09:46:04.761Z,81.40
2018-03-20T09:48:32.298Z,82.30
2018-03-20T09:51:00.620Z,80.80
2018-03-20T09:53:28.168Z,80.70
2018-03-20T09:55:55.742Z,80.30
2018-03-20T09:58:23.271Z,79.90
2018-03-20T10:00:51.586Z,81.50
2018-03-20T10:03:19.116Z,81.50
2018-03-20T10:05:46.662Z,81.10
2018-03-20T10:08:14.946Z,76.90
2018-03-20T10:10:43.231Z,78.50
2018-03-20T10:13:10.766Z,78.50
2018-03-20T10:15:39.080Z,78.00
2018-03-20T10:18:06.644Z,78.10
2018-03-20T10:20:34.193Z,78.20
2018-03-20T10:23:01.742Z,79.20
2018-03-20T10:25:29.267Z,78.90
2018-03-20T10:27:56.814Z,77.40
2018-03-20T10:30:24.341Z,78.30
2018-03-20T10:32:51.860Z,78.10
2018-03-20T10:35:20.290Z,76.50
2018-03-20T10:37:47.832Z,76.50
2018-03-20T10:40:15.376Z,77.00
2018-03-20T10:42:42.901Z,76.90
2018-03-20T10:45:10.452Z,77.00
2018-03-20T10:47:38.001Z,75.80
2018-03-20T10:50:05.558Z,75.40
2018-03-20T10:52:33.099Z,77.30
2018-03-20T10:55:00.682Z,76.30
2018-03-20T10:57:28.217Z,75.10
2018-03-20T10:59:55.754Z,72.30
2018-03-20T11:02:28.915Z,73.70
2018-03-20T11:04:57.231Z,72.20
2018-03-20T11:07:24.806Z,72.20
2018-03-20T11:09:52.444Z,73.40
2018-03-20T11:12:19.994Z,71.50
2018-03-20T11:14:49.985Z,73.30
2018-03-20T11:17:17.524Z,73.30
2018-03-20T11:19:45.066Z,71.90
2018-03-20T11:22:12.600Z,71.30
2018-03-20T11:24:40.174Z,72.50
2018-03-20T11:27:07.704Z,73.00
2018-03-20T11:29:36.011Z,69.00
2018-03-20T11:32:03.538Z,68.90
2018-03-20T11:34:31.846Z,70.20
2018-03-20T11:36:59.396Z,70.20
2018-03-20T11:39:26.956Z,73.90
2018-03-20T11:41:54.496Z,74.00
2018-03-20T11:44:22.070Z,75.20
2018-03-20T11:46:49.595Z,73.50
2018-03-20T11:49:17.912Z,74.70
2018-03-20T11:51:45.471Z,74.70
2018-03-20T11:54:12.997Z,73.40
2018-03-20T11:56:41.311Z,75.40
2018-03-20T11:59:08.847Z,75.30
2018-03-20T12:01:37.172Z,75.30
2018-03-20T12:04:04.702Z,75.30
2018-03-20T12:06:32.243Z,73.20
2018-03-20T12:09:11.811Z,71.80
2018-03-20T12:11:39.372Z,73.00
2018-03-20T12:14:06.894Z,73.00
2018-03-20T12:16:35.205Z,74.60
2018-03-20T12:19:02.755Z,74.60
2018-03-20T12:21:30.296Z,73.90
2018-03-20T12:23:58.621Z,71.00
2018-03-20T12:26:26.147Z,71.10
2018-03-20T12:28:53.707Z,70.00
2018-03-20T12:31:21.231Z,68.00
2018-03-20T12:33:49.743Z,65.60
2018-03-20T12:36:17.262Z,65.60
2018-03-20T12:38:44.794Z,66.70
2018-03-20T12:41:12.335Z,67.50
2018-03-20T12:43:39.858Z,67.30
2018-03-20T12:46:08.163Z,67.20
2018-03-20T12:48:35.697Z,67.20
2018-03-20T12:51:04.002Z,67.10
2018-03-20T12:53:31.541Z,67.00
2018-03-20T12:55:59.847Z,65.10
2018-03-20T12:58:27.373Z,65.00
2018-03-20T13:00:55.683Z,62.70
2018-03-20T13:03:23.203Z,62.70
2018-03-20T13:05:51.487Z,64.00
2018-03-20T13:08:19.794Z,65.60
2018-03-20T13:10:47.313Z,65.70
2018-03-20T13:13:15.632Z,63.60
2018-03-20T13:15:43.157Z,63.50
2018-03-20T13:18:10.692Z,62.70
2018-03-20T13:20:38.227Z,64.70
2018-03-20T13:23:05.783Z,66.60
2018-03-20T13:25:33.304Z,65.50
2018-03-20T13:28:00.820Z,62.90
2018-03-20T13:30:28.358Z,62.90
2018-03-20T13:32:55.902Z,64.10
2018-03-20T13:35:23.438Z,65.30
2018-03-20T13:37:50.958Z,63.20
2018-03-20T13:40:18.582Z,62.50
2018-03-20T13:42:46.104Z,65.00
2018-03-20T13:45:13.638Z,66.50
2018-03-20T13:47:41.166Z,65.10
2018-03-20T13:50:08.712Z,62.70
2018-03-20T13:52:36.250Z,63.70
2018-03-20T13:55:03.783Z,65.00
2018-03-20T13:57:32.101Z,66.20
2018-03-20T13:59:59.627Z,66.10
2018-03-20T14:02:27.928Z,64.90
2018-03-20T14:04:55.453Z,64.90
2018-03-20T14:07:23.770Z,60.90
2018-03-20T14:09:51.310Z,60.90
2018-03-20T14:12:19.634Z,62.10
2018-03-20T14:14:47.153Z,62.10
2018-03-20T14:17:14.683Z,61.20
2018-03-20T14:19:42.227Z,60.60
2018-03-20T14:22:09.739Z,61.20
2018-03-20T14:24:37.299Z,61.00
2018-03-20T14:27:04.830Z,60.30
2018-03-20T14:29:33.131Z,61.20
2018-03-20T14:32:00.660Z,61.20
2018-03-20T14:34:28.969Z,62.10
2018-03-20T14:36:56.493Z,62.10
2018-03-20T14:39:24.908Z,63.30
2018-03-20T14:41:52.423Z,63.30
2018-03-20T14:44:19.947Z,62.80
2018-03-20T14:46:47.484Z,62.10
2018-03-20T14:49:15.000Z,61.70
2018-03-20T14:51:42.542Z,59.60
2018-03-20T14:54:10.083Z,60.30
2018-03-20T14:56:37.633Z,60.10
2018-03-20T14:59:05.158Z,60.00
2018-03-20T15:01:33.469Z,57.90
2018-03-20T15:04:00.988Z,57.90
2018-03-20T15:06:29.274Z,58.80
2018-03-20T15:08:57.589Z,58.90
2018-03-20T15:11:25.175Z,58.80
2018-03-20T15:13:52.665Z,60.10
2018-03-20T15:16:20.950Z,63.70
2018-03-20T15:18:48.480Z,63.80
2018-03-20T15:21:28.715Z,62.60
2018-03-20T15:23:56.270Z,63.20
2018-03-20T15:26:23.789Z,62.60
2018-03-20T15:28:51.343Z,63.70
2018-03-20T15:31:18.862Z,64.10
2018-03-20T15:33:46.390Z,63.10
2018-03-20T15:36:13.938Z,61.80
2018-03-20T15:38:41.474Z,62.60
2018-03-20T15:41:09.016Z,59.90
2018-03-20T15:43:37.301Z,60.50
2018-03-20T15:46:05.616Z,59.00
2018-03-20T15:48:33.137Z,58.90
2018-03-20T15:51:01.436Z,59.50
2018-03-20T15:53:28.963Z,59.60
2018-03-20T15:55:57.273Z,60.10
2018-03-20T15:58:24.808Z,60.00
2018-03-20T16:00:53.092Z,59.90
2018-03-20T16:03:21.400Z,59.30
2018-03-20T16:05:48.918Z,59.30
2018-03-20T16:08:17.244Z,58.20
2018-03-20T16:10:44.763Z,58.20
2018-03-20T16:13:13.069Z,59.00
2018-03-20T16:15:40.643Z,59.00
2018-03-20T16:18:08.194Z,57.60
2018-03-20T16:20:35.723Z,57.20
2018-03-20T16:23:03.235Z,57.60
2018-03-20T16:25:30.806Z,57.50
2018-03-20T16:27:58.323Z,57.60
2018-03-20T16:30:25.854Z,57.10
2018-03-20T16:32:54.155Z,56.50
2018-03-20T16:35:21.684Z,56.50
2018-03-20T16:37:49.961Z,56.50
2018-03-20T16:40:18.261Z,57.00
2018-03-20T16:42:45.793Z,57.00
2018-03-20T16:45:14.103Z,56.40
2018-03-20T16:47:41.622Z,56.40
2018-03-20T16:50:09.905Z,57.30
2018-03-20T16:52:38.204Z,58.10
2018-03-20T16:55:05.723Z,58.10
2018-03-20T16:57:33.259Z,57.40
2018-03-20T17:00:01.544Z,57.00
2018-03-20T17:02:29.117Z,57.00
2018-03-20T17:04:56.696Z,57.90
2018-03-20T17:07:24.967Z,59.90
2018-03-20T17:09:53.261Z,60.60
2018-03-20T17:12:20.798Z,60.60
2018-03-20T17:14:49.105Z,60.60
2018-03-20T17:17:16.649Z,60.60
2018-03-20T17:19:44.956Z,62.70
2018-03-20T17:22:12.482Z,62.70
2018-03-20T17:24:40.782Z,64.40
2018-03-20T17:27:08.303Z,64.40
2018-03-20T17:29:36.617Z,64.80
2018-03-20T17:32:04.144Z,64.80
2018-03-20T17:34:32.491Z,66.50
2018-03-20T17:37:00.020Z,66.50
2018-03-20T17:39:27.562Z,65.80
2018-03-20T17:41:55.113Z,66.20
2018-03-20T17:44:23.406Z,68.70
2018-03-20T17:46:50.950Z,68.70
2018-03-20T17:49:19.241Z,68.50
2018-03-20T17:51:46.806Z,68.50
2018-03-20T17:54:14.325Z,69.50
2018-03-20T17:56:41.876Z,69.20
2018-03-20T17:59:09.397Z,69.60
2018-03-20T18:01:36.952Z,69.30
2018-03-20T18:04:04.512Z,69.40
2018-03-20T18:06:32.080Z,70.40
2018-03-20T18:08:59.605Z,71.30
2018-03-20T18:11:27.148Z,71.50
2018-03-20T18:13:55.453Z,70.20
2018-03-20T18:16:22.988Z,70.20
2018-03-20T18:18:51.300Z,70.00
2018-03-20T18:21:18.837Z,69.90
2018-03-20T18:23:46.398Z,69.70
2018-03-20T18:26:13.937Z,69.80
2018-03-20T18:28:42.269Z,70.70
2018-03-20T18:31:09.799Z,70.60
2018-03-20T18:33:37.319Z,71.20
2018-03-20T18:36:04.860Z,71.00
2018-03-20T18:38:32.487Z,70.30
2018-03-20T18:41:00.035Z,70.30
2018-03-20T18:43:27.566Z,70.50
2018-03-20T18:45:55.905Z,71.80
2018-03-20T18:48:23.433Z,71.80
2018-03-20T18:50:50.959Z,72.30
2018-03-20T18:53:19.281Z,71.70
2018-03-20T18:55:46.811Z,71.60
2018-03-20T18:58:15.119Z,71.50
2018-03-20T19:00:42.661Z,71.50
2018-03-20T19:03:10.210Z,71.90
2018-03-20T19:05:38.540Z,71.70
2018-03-20T19:08:06.066Z,71.70
2018-03-20T19:10:33.599Z,71.10
2018-03-20T19:13:01.926Z,70.00
2018-03-20T19:15:29.475Z,70.00
2018-03-20T19:17:57.010Z,69.90
2018-03-20T19:20:24.571Z,69.70
2018-03-20T19:22:52.122Z,69.30
2018-03-20T19:25:19.671Z,69.50
2018-03-20T19:27:47.966Z,70.90
2018-03-20T19:30:15.560Z,70.70
2018-03-20T19:32:43.065Z,71.10
2018-03-20T19:35:11.390Z,71.00
2018-03-20T19:37:38.942Z,71.00
2018-03-20T19:40:06.476Z,70.50
2018-03-20T19:42:34.037Z,70.10
2018-03-20T19:45:01.564Z,69.60
2018-03-20T19:47:29.122Z,68.20
2018-03-20T19:49:56.668Z,67.70
2018-03-20T19:52:24.244Z,67.90
2018-03-20T19:54:52.559Z,68.20
2018-03-20T19:57:20.134Z,68.20
2018-03-20T19:59:47.670Z,68.50
2018-03-20T20:02:15.234Z,69.00
2018-03-20T20:04:42.759Z,69.50
2018-03-20T20:07:11.069Z,70.30
2018-03-20T20:09:38.638Z,70.30
2018-03-20T20:12:06.163Z,71.10
2018-03-20T20:14:34.490Z,71.80
2018-03-20T20:17:02.020Z,71.80
2018-03-20T20:19:29.584Z,73.30
2018-03-20T20:21:57.119Z,74.20
2018-03-20T20:24:25.449Z,77.70
2018-03-20T20:26:53.049Z,77.70
2018-03-20T20:29:21.373Z,77.00
2018-03-20T20:31:48.923Z,76.30
2018-03-20T20:34:16.443Z,78.30
2018-03-20T20:36:44.799Z,78.30
2018-03-20T20:39:12.323Z,78.20
2018-03-20T20:41:39.904Z,79.20
2018-03-20T20:44:07.452Z,79.20
2018-03-20T20:46:34.993Z,78.30
2018-03-20T20:49:02.537Z,78.20
2018-03-20T20:51:30.837Z,80.20
2018-03-20T20:53:58.378Z,80.70
2018-03-20T20:56:25.899Z,80.80
2018-03-20T20:58:53.447Z,81.00
2018-03-20T21:01:20.993Z,80.70
2018-03-20T21:03:48.547Z,80.90
2018-03-20T21:06:16.204Z,81.20
2018-03-20T21:08:43.753Z,81.00
2018-03-20T21:11:11.274Z,81.00
2018-03-20T21:13:39.602Z,80.80
2018-03-20T21:16:07.123Z,80.80
2018-03-20T21:18:35.473Z,80.60
2018-03-20T21:21:02.988Z,80.60
2018-03-20T21:23:30.522Z,80.30
2018-03-20T21:25:58.069Z,79.70
2018-03-20T21:28:26.355Z,79.80
2018-03-20T21:30:54.665Z,79.20
2018-03-20T21:33:22.185Z,79.20
2018-03-20T21:35:50.492Z,79.30
2018-03-20T21:38:18.020Z,79.30
2018-03-20T21:40:46.309Z,80.20
2018-03-20T21:43:13.854Z,80.20
2018-03-20T21:45:42.199Z,81.80
2018-03-20T21:48:09.739Z,81.80
2018-03-20T21:50:37.261Z,81.60
2018-03-20T21:53:04.803Z,81.40
2018-03-20T21:55:33.089Z,80.60
2018-03-20T21:58:01.388Z,80.70
2018-03-20T22:00:28.909Z,80.70
2018-03-20T22:02:57.223Z,80.90
2018-03-20T22:05:24.748Z,80.70
2018-03-20T22:07:53.049Z,80.10
2018-03-20T22:10:20.597Z,80.10
2018-03-20T22:12:48.904Z,80.70
2018-03-20T22:15:16.446Z,80.70
2018-03-20T22:17:43.969Z,81.20
2018-03-20T22:20:11.502Z,81.30
2018-03-20T22:22:39.039Z,81.80
2018-03-20T22:25:06.581Z,81.90
2018-03-20T22:27:34.103Z,82.20
2018-03-20T22:30:01.643Z,82.20
2018-03-20T22:32:29.194Z,82.40
2018-03-20T22:34:56.726Z,81.90
2018-03-20T22:37:24.286Z,81.60
2018-03-20T22:39:51.811Z,81.00
2018-03-20T22:42:20.121Z,81.20
2018-03-20T22:44:47.646Z,81.20
2018-03-20T22:47:15.964Z,81.10
2018-03-20T22:49:43.530Z,81.10
2018-03-20T22:52:11.077Z,81.10
2018-03-20T22:54:38.620Z,81.30
2018-03-20T22:57:06.924Z,82.70
2018-03-20T22:59:34.485Z,82.70
2018-03-20T23:02:02.005Z,83.20
2018-03-20T23:04:30.312Z,83.00
2018-03-20T23:06:57.854Z,83.00
2018-03-20T23:09:25.405Z,83.20
2018-03-20T23:11:53.698Z,83.10
2018-03-20T23:14:21.247Z,83.10
2018-03-20T23:16:48.762Z,83.00
2018-03-20T23:19:16.300Z,83.30
2018-03-20T23:21:43.846Z,83.00
2018-03-20T23:24:11.378Z,83.50
2018-03-20T23:26:39.686Z,83.90
2018-03-20T23:29:07.218Z,83.80
2018-03-20T23:31:34.755Z,83.90
2018-03-20T23:34:03.049Z,83.20
2018-03-20T23:36:31.355Z,83.40
2018-03-20T23:38:58.867Z,82.80
2018-03-20T23:41:27.184Z,83.70
2018-03-20T23:43:54.703Z,83.10
2018-03-20T23:46:23.010Z,83.90
2018-03-20T23:48:50.559Z,84.00
2018-03-20T23:51:18.088Z,83.90
2018-03-20T23:53:45.626Z,84.30
2018-03-20T23:56:13.143Z,84.60
2018-03-20T23:58:40.684Z,85.00
